CheckWX is a tool to help pilots better visualize weather data.  It is not intended as a substitute for an official pre-flight weather briefing.

10:10:11 UTC

ESMS TAF
Malmö Sturup Airport
Malmö, Sweden
TAF ESMS 260516Z 2606/2706 12008KT 9999 SCT020 BECMG 2611/2614 31015KT TEMPO 2614/2618 31015G28KT

Jun-26@
06:00 UTC

Jun-26 @ 06:00 UTC

Jun-26@
11:00 UTC

Jun-26 @ 11:00 UTC

TAF ESMS 260516Z 2606/2706 12008KT 9999 SCT020
Wind
  • 120° at 8 KTS
Cloud Levels
  • Scattered at 2,000' AGL

Jun-26@
11:00 UTC

Jun-26 @ 11:00 UTC

Jun-27@
06:00 UTC

Jun-27 @ 06:00 UTC

BECMG 2611/2614 31015KT

Becoming

Becoming Conditions expected by Wed, Jun 26, 2019 @ 14:00 UTC

Wind
  • 310° at 15 KTS
Cloud Levels
  • Scattered at 2,000' AGL

Jun-26@
14:00 UTC

Jun-26 @ 14:00 UTC

Jun-26@
18:00 UTC

Jun-26 @ 18:00 UTC

TEMPO 2614/2618 31015G28KT

Temporary

Temporary Changes expected for less than half the time period

Wind
  • 310° at 15 KTS
  • {Gusting to 28 KTS